Mary Bennett — WDC4592 — position and weather

sailwx.info

Track history (hours):
 
Tides and Currents Weather Stations Pressure Air Temp Water Temp Dewpoint Dewpoint Depression Visibility Wind Speed Wind Dir Waves Ship Positions

Mary Bennett

Owner: Savannah Marine Services, Savannah, GA. More information available from US FCC via Universal Licensing System and Coast Guard Vessel Documentation Center.

Last reported at 2015-Mar-06 04:32 UTC. Time now 2015-Mar-06 07:36 UTC.
Position N 34°41' W 077°01'.

Length 21 m; draft 2.3 m.

Type: Tug. MMSI: 367027140.

Date/timePositionNaut miles runAvg speedWind from/ knotsBaromVisibWave heightAir tempDewpointWater temp
2015-Mar-06 04:32N 34°41' W 077°01'7 7.2
2015-Mar-06 03:33N 34°43' W 076°53'8 7.8
2015-Mar-06 02:33N 34°43' W 076°43'6 6.4
2015-Mar-06 01:33N 34°49' W 076°41'8 6.8
2015-Mar-06 00:19N 34°57' W 076°41'  
2015-Mar-03 05:33N 35°01' W 076°39'7 6.6
2015-Mar-03 04:33N 34°55' W 076°40'6 5.9
2015-Mar-03 03:34N 34°49' W 076°41'6 5.8
2015-Mar-03 02:33N 34°44' W 076°42'7 6.6
2015-Mar-03 01:33N 34°43' W 076°50'  
Track history (hours):
 
Tides and Currents Weather Stations Pressure Air Temp Water Temp Dewpoint Dewpoint Depression Visibility Wind Speed Wind Dir Waves Ship Positions

Mary Bennett

Owner: Savannah Marine Services, Savannah, GA. More information available from US FCC via Universal Licensing System and Coast Guard Vessel Documentation Center.

Last reported at 2015-Mar-06 04:32 UTC. Time now 2015-Mar-06 07:36 UTC.
Position N 34°41' W 077°01'.

Length 21 m; draft 2.3 m.

Type: Tug. MMSI: 367027140.

Date/timePositionNaut miles runAvg speedWind from/ knotsBaromVisibWave heightAir tempDewpointWater temp
2015-Mar-06 04:32N 34°41' W 077°01'7 7.2
2015-Mar-06 03:33N 34°43' W 076°53'8 7.8
2015-Mar-06 02:33N 34°43' W 076°43'6 6.4
2015-Mar-06 01:33N 34°49' W 076°41'8 6.8
2015-Mar-06 00:19N 34°57' W 076°41'  
2015-Mar-03 05:33N 35°01' W 076°39'7 6.6
2015-Mar-03 04:33N 34°55' W 076°40'6 5.9
2015-Mar-03 03:34N 34°49' W 076°41'6 5.8
2015-Mar-03 02:33N 34°44' W 076°42'7 6.6
2015-Mar-03 01:33N 34°43' W 076°50'  

Dump ship's entire track history